createdAt,value
2023-07-04T00:01:22.732Z,100896.75
2023-07-04T00:03:56.755Z,100892.25
2023-07-04T00:06:29.207Z,100893.19
2023-07-04T00:08:56.604Z,100890.50
2023-07-04T00:11:24.501Z,100883.38
2023-07-04T00:13:52.189Z,100890.41
2023-07-04T00:16:20.308Z,100878.94
2023-07-04T00:18:47.368Z,100879.88
2023-07-04T00:21:18.321Z,100877.41
2023-07-04T00:23:48.711Z,100881.06
2023-07-04T00:26:19.629Z,100885.66
2023-07-04T00:28:47.530Z,100880.50
2023-07-04T00:31:19.550Z,100889.53
2023-07-04T00:33:48.327Z,100893.22
2023-07-04T00:36:18.181Z,100889.84
2023-07-04T00:38:50.255Z,100894.44
2023-07-04T00:41:24.570Z,100898.13
2023-07-04T00:44:02.882Z,100900.88
2023-07-04T00:46:40.221Z,100895.63
2023-07-04T00:49:30.788Z,100889.47
2023-07-04T00:52:08.187Z,100887.75
2023-07-04T00:54:59.664Z,100893.06
2023-07-04T00:57:33.910Z,100889.47
2023-07-04T01:00:16.896Z,100895.72
2023-07-04T01:02:51.075Z,100900.22
2023-07-04T01:05:27.327Z,100895.75
2023-07-04T01:08:11.906Z,100893.09
2023-07-04T01:10:43.763Z,100898.38
2023-07-04T01:13:35.713Z,100904.59
2023-07-04T01:16:15.665Z,100903.78
2023-07-04T01:18:47.931Z,100895.91
2023-07-04T01:21:18.988Z,100892.38
2023-07-04T01:24:12.645Z,100901.22
2023-07-04T01:26:45.409Z,100901.25
2023-07-04T01:29:16.870Z,100901.25
2023-07-04T01:31:45.940Z,100905.75
2023-07-04T01:34:15.943Z,100907.56
2023-07-04T01:36:43.663Z,100901.38
2023-07-04T01:39:16.706Z,100905.91
2023-07-04T01:41:48.721Z,100906.81
2023-07-04T01:44:17.801Z,100905.94
2023-07-04T01:46:46.056Z,100908.66
2023-07-04T01:49:13.922Z,100897.16
2023-07-04T01:51:42.861Z,100902.47
2023-07-04T01:54:17.370Z,100905.13
2023-07-04T01:56:48.874Z,100905.16
2023-07-04T01:59:15.957Z,100900.69
2023-07-04T02:01:43.100Z,100902.41
2023-07-04T02:04:10.583Z,100902.31
2023-07-04T02:06:37.652Z,100897.00
2023-07-04T02:09:04.882Z,100894.31
2023-07-04T02:11:32.182Z,100894.25
2023-07-04T02:14:01.479Z,100885.38
2023-07-04T02:16:28.852Z,100895.03
2023-07-04T02:18:58.491Z,100895.84
2023-07-04T02:21:27.686Z,100894.03
2023-07-04T02:23:55.681Z,100893.25
2023-07-04T02:26:23.155Z,100891.56
2023-07-04T02:28:50.187Z,100891.59
2023-07-04T02:31:17.412Z,100891.66
2023-07-04T02:33:44.522Z,100894.44
2023-07-04T02:36:13.296Z,100890.06
2023-07-04T02:38:41.852Z,100885.78
2023-07-04T02:41:10.546Z,100891.22
2023-07-04T02:43:38.584Z,100885.19
2023-07-04T02:46:07.839Z,100890.69
2023-07-04T02:48:35.603Z,100884.63
2023-07-04T02:51:03.469Z,100897.16
2023-07-04T02:53:30.787Z,100874.31
2023-07-04T02:55:58.167Z,100885.03
2023-07-04T02:58:25.256Z,100888.72
2023-07-04T03:00:53.471Z,100892.34
2023-07-04T03:03:22.949Z,100879.22
2023-07-04T03:05:50.307Z,100889.00
2023-07-04T03:08:17.745Z,100896.97
2023-07-04T03:10:48.275Z,100891.69
2023-07-04T03:13:16.063Z,100885.56
2023-07-04T03:15:43.390Z,100886.47
2023-07-04T03:18:10.617Z,100905.94
2023-07-04T03:20:37.708Z,100898.91
2023-07-04T03:23:05.249Z,100902.47
2023-07-04T03:25:32.376Z,100904.28
2023-07-04T03:27:59.404Z,100904.31
2023-07-04T03:30:26.565Z,100901.72
2023-07-04T03:32:53.725Z,100901.81
2023-07-04T03:35:20.929Z,100909.81
2023-07-04T03:37:47.984Z,100911.53
2023-07-04T03:40:15.238Z,100916.84
2023-07-04T03:42:42.606Z,100917.84
2023-07-04T03:45:11.108Z,100919.63
2023-07-04T03:47:38.326Z,100926.75
2023-07-04T03:50:07.544Z,100926.75
2023-07-04T03:52:35.169Z,100925.84
2023-07-04T03:55:02.553Z,100924.94
2023-07-04T03:57:29.749Z,100917.81
2023-07-04T03:59:56.796Z,100918.63
2023-07-04T04:02:24.305Z,100922.13
2023-07-04T04:04:51.777Z,100925.53
2023-07-04T04:07:19.068Z,100930.75
2023-07-04T04:09:46.275Z,100930.69
2023-07-04T04:12:13.378Z,100934.03
2023-07-04T04:14:40.469Z,100935.63
2023-07-04T04:17:07.697Z,100933.59
2023-07-04T04:19:35.377Z,100928.09
2023-07-04T04:22:02.538Z,100934.91
2023-07-04T04:24:29.884Z,100933.84
2023-07-04T04:27:01.943Z,100932.88
2023-07-04T04:29:29.333Z,100940.72
2023-07-04T04:31:57.153Z,100942.31
2023-07-04T04:34:24.237Z,100944.75
2023-07-04T04:36:51.322Z,100942.84
2023-07-04T04:39:18.506Z,100946.22
2023-07-04T04:41:45.638Z,100951.41
2023-07-04T04:44:12.777Z,100947.78
2023-07-04T04:46:41.926Z,100960.78
2023-07-04T04:49:09.277Z,100950.91
2023-07-04T04:51:36.385Z,100954.50
2023-07-04T04:54:03.724Z,100954.69
2023-07-04T04:56:31.223Z,100956.56
2023-07-04T04:58:58.254Z,100953.03
2023-07-04T05:01:26.592Z,100951.97
2023-07-04T05:03:57.678Z,100956.09
2023-07-04T05:06:27.191Z,100973.47
2023-07-04T05:08:54.368Z,100967.94
2023-07-04T05:11:21.935Z,100975.56
2023-07-04T05:13:51.692Z,100969.94
2023-07-04T05:16:21.738Z,100972.28
2023-07-04T05:18:51.144Z,100966.75
2023-07-04T05:21:22.690Z,100971.00
2023-07-04T05:23:52.613Z,100965.53
2023-07-04T05:26:21.513Z,100966.25
2023-07-04T05:28:48.885Z,100973.91
2023-07-04T05:31:19.707Z,100970.88
2023-07-04T05:33:46.848Z,100964.44
2023-07-04T05:36:21.676Z,100967.75
2023-07-04T05:38:51.020Z,100980.88
2023-07-04T05:41:20.811Z,100982.50
2023-07-04T05:43:48.617Z,100981.53
2023-07-04T05:46:18.615Z,100987.63
2023-07-04T05:48:46.282Z,100978.50
2023-07-04T05:51:18.394Z,100978.28
2023-07-04T05:53:50.467Z,100981.56
2023-07-04T05:56:20.230Z,100982.09
2023-07-04T05:58:51.026Z,100983.53
2023-07-04T06:01:29.452Z,100984.03
2023-07-04T06:03:58.305Z,100985.56
2023-07-04T06:06:36.459Z,100982.69
2023-07-04T06:09:08.297Z,100988.97
2023-07-04T06:11:39.710Z,100991.41
2023-07-04T06:14:07.848Z,100990.22
2023-07-04T06:16:38.372Z,100998.75
2023-07-04T06:19:05.624Z,101002.00
2023-07-04T06:21:43.279Z,101004.50
2023-07-04T06:24:12.912Z,101005.38
2023-07-04T06:26:40.170Z,101015.63
2023-07-04T06:29:07.231Z,101012.91
2023-07-04T06:31:34.546Z,101017.31
2023-07-04T06:34:02.065Z,101006.25
2023-07-04T06:36:30.520Z,101020.56
2023-07-04T06:39:01.776Z,101021.94
2023-07-04T06:41:29.084Z,101018.31
2023-07-04T06:43:56.264Z,101025.19
2023-07-04T06:46:24.425Z,101027.25
2023-07-04T06:48:53.216Z,101036.72
2023-07-04T06:51:21.424Z,101028.50
2023-07-04T06:53:49.412Z,101039.94
2023-07-04T06:56:21.861Z,101034.78
2023-07-04T06:58:55.754Z,101045.06
2023-07-04T07:01:28.827Z,101048.31
2023-07-04T07:03:58.319Z,101042.72
2023-07-04T07:06:26.692Z,101052.66
2023-07-04T07:08:54.365Z,101053.13
2023-07-04T07:11:23.048Z,101050.28
2023-07-04T07:13:51.162Z,101056.09
2023-07-04T07:16:23.058Z,101050.09
2023-07-04T07:18:53.108Z,101054.97
2023-07-04T07:21:24.606Z,101047.41
2023-07-04T07:23:57.304Z,101049.47
2023-07-04T07:26:27.536Z,101049.72
2023-07-04T07:28:55.922Z,101054.13
2023-07-04T07:31:33.988Z,101058.06
2023-07-04T07:34:04.261Z,101061.00
2023-07-04T07:36:38.614Z,101065.41
2023-07-04T07:39:09.692Z,101066.03
2023-07-04T07:41:41.567Z,101066.91
2023-07-04T07:44:10.829Z,101071.78
2023-07-04T07:46:38.384Z,101062.06
2023-07-04T07:49:05.621Z,101060.19
2023-07-04T07:51:33.020Z,101067.97
2023-07-04T07:54:02.168Z,101071.19
2023-07-04T07:56:39.191Z,101072.69
2023-07-04T07:59:07.093Z,101079.44
2023-07-04T08:01:35.798Z,101075.88
2023-07-04T08:04:05.300Z,101073.31
2023-07-04T08:06:41.468Z,101083.91
2023-07-04T08:09:13.842Z,101068.03
2023-07-04T08:11:42.508Z,101085.03
2023-07-04T08:14:09.662Z,101073.94
2023-07-04T08:16:53.259Z,101084.63
2023-07-04T08:19:24.596Z,101094.66
2023-07-04T08:21:53.100Z,101092.56
2023-07-04T08:24:20.500Z,101097.34
2023-07-04T08:26:48.815Z,101100.91
2023-07-04T08:29:21.484Z,101091.34
2023-07-04T08:31:48.892Z,101084.81
2023-07-04T08:34:16.155Z,101085.53
2023-07-04T08:36:45.447Z,101086.94
2023-07-04T08:39:12.747Z,101080.41
2023-07-04T08:41:58.075Z,101072.97
2023-07-04T08:44:42.407Z,101073.84
2023-07-04T08:47:13.998Z,101069.50
2023-07-04T08:50:05.217Z,101064.53
2023-07-04T08:52:43.359Z,101052.72
2023-07-04T08:55:14.558Z,101060.38
2023-07-04T08:57:58.642Z,101072.06
2023-07-04T09:00:39.885Z,101077.78
2023-07-04T09:03:59.479Z,101090.59
2023-07-04T09:06:42.969Z,101092.72
2023-07-04T09:09:49.143Z,101089.19
2023-07-04T09:12:16.481Z,101095.00
2023-07-04T09:14:57.937Z,101096.34
2023-07-04T09:17:34.759Z,101099.13
2023-07-04T09:20:06.366Z,101100.03
2023-07-04T09:22:33.513Z,101099.13
2023-07-04T09:25:00.629Z,101101.66
2023-07-04T09:27:29.791Z,101100.84
2023-07-04T09:29:58.486Z,101100.59
2023-07-04T09:32:25.592Z,101106.84
2023-07-04T09:35:01.316Z,101101.56
2023-07-04T09:37:29.420Z,101096.75
2023-07-04T09:40:00.404Z,101113.25
2023-07-04T09:42:46.175Z,101112.78
2023-07-04T09:45:24.127Z,101115.47
2023-07-04T09:47:52.529Z,101110.88
2023-07-04T09:50:22.624Z,101125.81
2023-07-04T09:53:11.246Z,101123.13
2023-07-04T09:55:42.464Z,101124.00
2023-07-04T09:58:24.748Z,101122.50
2023-07-04T10:01:12.927Z,101124.09
2023-07-04T10:03:41.462Z,101138.38
2023-07-04T10:06:11.270Z,101118.69
2023-07-04T10:08:54.552Z,101123.91
2023-07-04T10:11:53.056Z,101125.31
2023-07-04T10:14:36.197Z,101130.75
2023-07-04T10:17:30.286Z,101134.47
2023-07-04T10:20:11.743Z,101132.84
2023-07-04T10:22:42.573Z,101136.25
2023-07-04T10:25:23.070Z,101136.50
2023-07-04T10:28:10.297Z,101121.53
2023-07-04T10:30:41.208Z,101123.88
2023-07-04T10:33:39.983Z,101114.84
2023-07-04T10:36:11.847Z,101119.28
2023-07-04T10:38:40.804Z,101115.63
2023-07-04T10:41:58.205Z,101128.50
2023-07-04T10:44:30.549Z,101128.31
2023-07-04T10:47:05.656Z,101126.59
2023-07-04T10:49:48.134Z,101115.16
2023-07-04T10:52:26.498Z,101108.66
2023-07-04T10:54:53.938Z,101120.72
2023-07-04T10:57:43.581Z,101121.63
2023-07-04T11:00:29.102Z,101123.88
2023-07-04T11:03:11.530Z,101122.41
2023-07-04T11:05:47.879Z,101111.28
2023-07-04T11:08:21.657Z,101128.00
2023-07-04T11:11:08.088Z,101118.06
2023-07-04T11:13:35.629Z,101115.41
2023-07-04T11:16:08.542Z,101118.75
2023-07-04T11:18:44.210Z,101126.31
2023-07-04T11:21:16.211Z,101120.53
2023-07-04T11:23:52.306Z,101116.47
2023-07-04T11:26:41.611Z,101109.06
2023-07-04T11:29:20.190Z,101116.34
2023-07-04T11:32:03.465Z,101110.78
2023-07-04T11:34:53.135Z,101112.59
2023-07-04T11:37:32.063Z,101121.34
2023-07-04T11:40:11.849Z,101120.84
2023-07-04T11:42:52.391Z,101124.09
2023-07-04T11:45:23.746Z,101121.34
2023-07-04T11:48:04.673Z,101125.81
2023-07-04T11:50:49.157Z,101123.38
2023-07-04T11:53:47.050Z,101122.41
2023-07-04T11:56:27.776Z,101117.69
2023-07-04T11:59:38.917Z,101105.53
2023-07-04T12:02:15.362Z,101112.53
2023-07-04T12:04:42.418Z,101109.09
2023-07-04T12:07:40.231Z,101110.66
2023-07-04T12:10:18.888Z,101111.78
2023-07-04T12:12:47.981Z,101112.00
2023-07-04T12:15:25.781Z,101106.19
2023-07-04T12:17:56.046Z,101104.47
2023-07-04T12:20:23.556Z,101098.03
2023-07-04T12:22:54.591Z,101096.28
2023-07-04T12:25:47.551Z,101089.81
2023-07-04T12:28:17.587Z,101090.34
2023-07-04T12:30:59.856Z,101090.19
2023-07-04T12:33:43.178Z,101092.75
2023-07-04T12:36:13.123Z,101085.59
2023-07-04T12:38:54.496Z,101095.41
2023-07-04T12:41:29.220Z,101089.81
2023-07-04T12:51:45.776Z,101085.13
2023-07-04T12:54:15.543Z,101080.59
2023-07-04T12:56:45.882Z,101073.00
2023-07-04T12:59:37.825Z,101078.44
2023-07-04T13:02:24.008Z,101074.50
2023-07-04T13:04:55.348Z,101077.97
2023-07-04T13:07:24.827Z,101074.69
2023-07-04T13:09:57.239Z,101070.13
2023-07-04T13:12:34.963Z,101076.53
2023-07-04T13:15:20.191Z,101071.16
2023-07-04T13:18:04.977Z,101069.66
2023-07-04T13:20:36.110Z,101065.56
2023-07-04T13:25:58.216Z,101065.06
2023-07-04T13:34:13.926Z,101059.25
2023-07-04T13:36:43.747Z,101054.72
2023-07-04T13:41:42.538Z,101045.34
2023-07-04T13:46:41.894Z,101048.00
2023-07-04T13:49:09.294Z,101047.69
2023-07-04T13:51:36.532Z,101043.34
2023-07-04T13:54:05.466Z,101038.41
2023-07-04T13:56:34.125Z,101035.28
2023-07-04T13:59:01.645Z,101028.78
2023-07-04T14:06:31.241Z,101035.63
2023-07-04T14:08:58.595Z,101038.03
2023-07-04T14:11:25.838Z,101031.75
2023-07-04T14:13:56.589Z,101034.25
2023-07-04T14:21:25.818Z,101040.56
2023-07-04T14:23:52.971Z,101033.94
2023-07-04T14:26:23.164Z,101029.75
2023-07-04T14:28:53.712Z,101029.38
2023-07-04T14:31:21.262Z,101029.09
2023-07-04T14:33:51.515Z,101034.28
2023-07-04T14:36:19.343Z,101019.81
2023-07-04T14:38:46.490Z,101026.38
2023-07-04T14:43:44.732Z,101018.53
2023-07-04T14:46:12.022Z,101017.44
2023-07-04T14:48:40.844Z,101027.19
2023-07-04T14:51:14.275Z,101013.88
2023-07-04T14:53:43.824Z,101010.44
2023-07-04T14:56:14.925Z,100999.00
2023-07-04T14:58:42.992Z,101004.75
2023-07-04T15:01:21.307Z,101005.84
2023-07-04T15:03:48.661Z,100996.16
2023-07-04T15:06:17.315Z,101000.41
2023-07-04T15:08:44.670Z,100997.44
2023-07-04T15:11:11.901Z,100992.47
2023-07-04T15:13:39.104Z,100995.28
2023-07-04T15:16:08.601Z,100987.75
2023-07-04T15:18:39.525Z,100984.97
2023-07-04T15:21:09.654Z,100988.13
2023-07-04T15:23:37.664Z,100986.75
2023-07-04T15:26:20.080Z,100985.00
2023-07-04T15:28:53.047Z,100983.28
2023-07-04T15:31:20.789Z,100983.69
2023-07-04T15:33:49.956Z,100977.66
2023-07-04T15:36:17.323Z,100979.97
2023-07-04T15:38:44.414Z,100977.19
2023-07-04T15:41:12.322Z,100965.81
2023-07-04T15:43:40.666Z,100958.66
2023-07-04T15:46:12.368Z,100962.44
2023-07-04T15:48:41.832Z,100947.31
2023-07-04T15:51:12.622Z,100943.44
2023-07-04T15:53:39.752Z,100955.31
2023-07-04T15:56:13.889Z,100942.72
2023-07-04T15:58:41.798Z,100940.16
2023-07-04T16:01:09.845Z,100938.84
2023-07-04T16:03:38.098Z,100932.53
2023-07-04T16:06:09.789Z,100928.88
2023-07-04T16:08:39.775Z,100920.97
2023-07-04T16:11:11.747Z,100919.69
2023-07-04T16:13:39.128Z,100922.53
2023-07-04T16:16:08.664Z,100918.66
2023-07-04T16:18:36.589Z,100923.59
2023-07-04T16:21:04.013Z,100919.47
2023-07-04T16:23:31.561Z,100917.47
2023-07-04T16:25:59.028Z,100909.34
2023-07-04T16:28:26.283Z,100911.09
2023-07-04T16:31:08.212Z,100905.22
2023-07-04T16:33:35.987Z,100892.94
2023-07-04T16:36:07.029Z,100895.63
2023-07-04T16:38:34.928Z,100886.22
2023-07-04T16:41:07.634Z,100889.06
2023-07-04T16:43:34.899Z,100886.06
2023-07-04T16:46:02.040Z,100873.47
2023-07-04T16:48:29.103Z,100874.97
2023-07-04T16:50:58.347Z,100875.66
2023-07-04T16:53:26.380Z,100870.38
2023-07-04T16:55:59.625Z,100864.66
2023-07-04T16:58:28.639Z,100866.06
2023-07-04T17:00:56.344Z,100863.56
2023-07-04T17:03:23.949Z,100864.06
2023-07-04T17:05:51.467Z,100867.22
2023-07-04T17:08:21.764Z,100858.25
2023-07-04T17:10:52.307Z,100864.63
2023-07-04T17:13:36.671Z,100859.28
2023-07-04T17:16:05.430Z,100856.66
2023-07-04T17:18:32.557Z,100861.06
2023-07-04T17:20:59.589Z,100857.59
2023-07-04T17:23:26.711Z,100862.31
2023-07-04T17:25:55.863Z,100854.28
2023-07-04T17:28:23.330Z,100843.56
2023-07-04T17:30:59.100Z,100853.00
2023-07-04T17:33:28.954Z,100846.69
2023-07-04T17:36:03.439Z,100849.16
2023-07-04T17:38:31.588Z,100838.91
2023-07-04T17:41:04.261Z,100840.22
2023-07-04T17:43:31.398Z,100825.47
2023-07-04T17:46:04.186Z,100830.41
2023-07-04T17:48:31.545Z,100829.00
2023-07-04T17:51:07.176Z,100829.28
2023-07-04T17:53:34.729Z,100825.25
2023-07-04T17:56:06.559Z,100817.59
2023-07-04T17:58:35.483Z,100830.50
2023-07-04T18:01:12.824Z,100827.50
2023-07-04T18:03:43.619Z,100828.69
2023-07-04T18:06:11.534Z,100827.16
2023-07-04T18:08:39.214Z,100824.84
2023-07-04T18:11:10.338Z,100823.31
2023-07-04T18:16:06.482Z,100823.13
2023-07-04T18:18:33.483Z,100822.63
2023-07-04T18:21:08.540Z,100811.22
2023-07-04T18:23:36.363Z,100812.44
2023-07-04T18:26:06.381Z,100830.41
2023-07-04T18:28:36.515Z,100828.94
2023-07-04T18:31:11.086Z,100826.81
2023-07-04T18:33:39.821Z,100819.38
2023-07-04T18:36:22.275Z,100810.81
2023-07-04T18:38:49.965Z,100807.34
2023-07-04T18:41:39.927Z,100800.47
2023-07-04T18:44:10.636Z,100783.88
2023-07-04T18:46:40.347Z,100775.94
2023-07-04T18:49:08.732Z,100770.56
2023-07-04T18:51:40.030Z,100768.84
2023-07-04T18:54:12.591Z,100777.00
2023-07-04T18:56:41.931Z,100771.66
2023-07-04T18:59:11.338Z,100768.91
2023-07-04T19:01:39.010Z,100760.09
2023-07-04T19:04:06.616Z,100760.22
2023-07-04T19:06:36.580Z,100747.94
2023-07-04T19:09:05.761Z,100746.31
2023-07-04T19:11:41.890Z,100758.88
2023-07-04T19:14:18.585Z,100749.13
2023-07-04T19:16:52.907Z,100732.28
2023-07-04T19:19:24.554Z,100734.13
2023-07-04T19:21:55.114Z,100730.66
2023-07-04T19:24:24.431Z,100733.41
2023-07-04T19:26:52.549Z,100721.84
2023-07-04T19:29:20.208Z,100725.53
2023-07-04T19:31:55.462Z,100723.91
2023-07-04T19:34:24.797Z,100720.59
2023-07-04T19:36:55.054Z,100721.69
2023-07-04T19:39:23.527Z,100706.66
2023-07-04T19:41:50.636Z,100706.78
2023-07-04T19:44:17.932Z,100697.16
2023-07-04T19:46:45.129Z,100685.94
2023-07-04T19:49:13.375Z,100681.72
2023-07-04T19:51:40.598Z,100691.69
2023-07-04T19:54:09.079Z,100686.50
2023-07-04T19:56:36.592Z,100674.16
2023-07-04T19:59:04.997Z,100673.38
2023-07-04T20:01:36.902Z,100672.50
2023-07-04T20:04:05.044Z,100668.94
2023-07-04T20:06:34.169Z,100666.31
2023-07-04T20:09:02.824Z,100665.47
2023-07-04T20:11:29.994Z,100664.66
2023-07-04T20:13:57.691Z,100658.63
2023-07-04T20:16:31.592Z,100649.03
2023-07-04T20:18:59.648Z,100647.38
2023-07-04T20:21:28.562Z,100645.66
2023-07-04T20:23:55.725Z,100637.72
2023-07-04T20:26:22.890Z,100628.13
2023-07-04T20:28:50.384Z,100631.91
2023-07-04T20:31:17.662Z,100637.31
2023-07-04T20:33:44.809Z,100628.44
2023-07-04T20:36:12.610Z,100619.56
2023-07-04T20:38:41.145Z,100613.53
2023-07-04T20:41:10.910Z,100609.34
2023-07-04T20:43:38.042Z,100607.81
2023-07-04T20:46:05.988Z,100607.25
2023-07-04T20:48:33.068Z,100601.31
2023-07-04T20:51:05.643Z,100602.47
2023-07-04T20:53:33.333Z,100595.56
2023-07-04T20:56:00.724Z,100599.31
2023-07-04T20:58:28.049Z,100591.47
2023-07-04T21:00:55.764Z,100590.97
2023-07-04T21:03:24.547Z,100586.00
2023-07-04T21:05:54.352Z,100579.06
2023-07-04T21:08:24.281Z,100571.31
2023-07-04T21:11:02.174Z,100562.59
2023-07-04T21:13:30.062Z,100553.00
2023-07-04T21:16:13.742Z,100552.19
2023-07-04T21:18:42.697Z,100542.44
2023-07-04T21:21:11.060Z,100536.19
2023-07-04T21:23:39.047Z,100532.53
2023-07-04T21:26:07.391Z,100530.75
2023-07-04T21:28:35.797Z,100521.88
2023-07-04T21:31:05.084Z,100520.06
2023-07-04T21:33:32.324Z,100517.41
2023-07-04T21:36:00.983Z,100517.41
2023-07-04T21:38:28.587Z,100508.53
2023-07-04T21:41:00.425Z,100507.69
2023-07-04T21:43:28.111Z,100494.38
2023-07-04T21:46:14.618Z,100489.94
2023-07-04T21:48:41.733Z,100484.63
2023-07-04T21:51:09.730Z,100483.72
2023-07-04T21:53:37.367Z,100467.81
2023-07-04T21:56:05.121Z,100468.72
2023-07-04T21:58:33.277Z,100460.03
2023-07-04T22:01:05.627Z,100462.78
2023-07-04T22:03:35.660Z,100467.47
2023-07-04T22:06:14.455Z,100456.03
2023-07-04T22:08:43.469Z,100454.38
2023-07-04T22:11:13.825Z,100445.50
2023-07-04T22:13:45.427Z,100438.44
2023-07-04T22:16:16.952Z,100444.72
2023-07-04T22:18:44.478Z,100434.94
2023-07-04T22:21:12.912Z,100427.16
2023-07-04T22:23:42.190Z,100431.63
2023-07-04T22:26:11.648Z,100423.78
2023-07-04T22:28:39.697Z,100417.59
2023-07-04T22:31:13.381Z,100406.06
2023-07-04T22:33:48.526Z,100398.06
2023-07-04T22:36:17.872Z,100390.00
2023-07-04T22:38:45.175Z,100398.78
2023-07-04T22:41:12.366Z,100401.22
2023-07-04T22:43:39.477Z,100406.63
2023-07-04T22:46:06.557Z,100415.38
2023-07-04T22:48:34.210Z,100408.09
2023-07-04T22:51:04.025Z,100406.00
2023-07-04T22:53:31.330Z,100395.88
2023-07-04T22:56:07.062Z,100392.56
2023-07-04T22:58:36.453Z,100390.91
2023-07-04T23:01:17.806Z,100379.53
2023-07-04T23:03:45.184Z,100375.28
2023-07-04T23:06:13.158Z,100380.84
2023-07-04T23:08:42.116Z,100373.03
2023-07-04T23:11:09.376Z,100363.53
2023-07-04T23:13:36.970Z,100361.09
2023-07-04T23:16:13.731Z,100360.28
2023-07-04T23:18:46.767Z,100368.28
2023-07-04T23:21:16.299Z,100361.31
2023-07-04T23:23:46.149Z,100356.38
2023-07-04T23:26:25.955Z,100346.94
2023-07-04T23:28:56.755Z,100340.97
2023-07-04T23:31:24.253Z,100337.56
2023-07-04T23:33:51.419Z,100333.22
2023-07-04T23:36:20.788Z,100314.69
2023-07-04T23:38:50.070Z,100303.19
2023-07-04T23:41:20.745Z,100300.59
2023-07-04T23:43:48.713Z,100291.75
2023-07-04T23:46:15.904Z,100306.66
2023-07-04T23:48:43.128Z,100289.09
2023-07-04T23:51:11.000Z,100281.19
2023-07-04T23:53:38.167Z,100284.81
2023-07-04T23:56:05.658Z,100271.56
2023-07-04T23:58:32.671Z,100270.72
